Time;durP1;ratioP1;P1;durP2;ratioP2;P2;SDS_P1;SDS_P2;PMS_P1;PMS_P2;Temp;Humidity;BMP_temperature;BMP_pressure;BME280_temperature;BME280_humidity;BME280_pressure;Samples;Min_cycle;Max_cycle;Signal;HPM_P1;HPM_P2
2021/09/27 04:56:29;;;;;;;;;8.75;6.75;;;;;19.42;71.40;101327.88;5780812;22;46800;-75
2021/09/27 04:59:06;;;;;;;;;10.75;8.00;;;;;19.48;71.08;101329.31;5076765;27;45463;-76
2021/09/27 05:02:14;;;;;;;;;5.25;4.75;;;;;19.43;71.48;101326.06;5080311;27;45496;-76
2021/09/27 05:04:48;;;;;;;;;7.50;6.00;;;;;19.43;71.62;101334.88;5078993;27;45193;-76
2021/09/27 05:07:59;;;;;;;;;7.75;6.25;;;;;19.41;71.23;101327.97;5077953;28;45381;-76
2021/09/27 05:11:03;;;;;;;;;9.00;7.00;;;;;19.36;71.17;101325.56;4977429;28;46249;-76
2021/09/27 05:13:34;;;;;;;;;7.25;7.25;;;;;19.36;71.20;101330.06;4978226;28;45342;-76
2021/09/27 05:16:24;;;;;;;;;9.50;7.25;;;;;19.37;71.62;101305.09;5054060;28;45721;-76
2021/09/27 05:19:07;;;;;;;;;8.00;6.00;;;;;19.36;71.30;101312.22;5076834;28;45317;-76
2021/09/27 05:21:39;;;;;;;;;9.00;8.00;;;;;19.36;71.72;101316.72;5072716;28;45818;-76
2021/09/27 05:24:04;;;;;;;;;7.50;7.00;;;;;19.38;71.56;101304.16;5073424;28;45227;-76
2021/09/27 05:26:52;;;;;;;;;9.50;7.00;;;;;19.38;71.56;101306.84;5075374;28;45374;-76
2021/09/27 05:29:26;;;;;;;;;6.00;6.00;;;;;19.33;71.49;101294.63;5079612;27;45196;-76
2021/09/27 05:32:06;;;;;;;;;10.00;7.00;;;;;19.32;71.35;101292.94;5061699;28;45296;-76
2021/09/27 05:35:03;;;;;;;;;9.25;6.00;;;;;19.32;71.33;101306.25;5066134;27;45406;-76
2021/09/27 05:37:37;;;;;;;;;7.00;5.25;;;;;19.32;71.31;101311.59;5061372;28;45535;-76
2021/09/27 05:40:19;;;;;;;;;8.50;7.25;;;;;19.30;71.37;101309.97;5068242;28;45453;-77
2021/09/27 05:43:09;;;;;;;;;6.75;6.75;;;;;19.31;71.62;101307.19;5067076;28;45405;-78
2021/09/27 05:45:34;;;;;;;;;7.25;7.00;;;;;19.32;71.28;101319.56;5070968;28;45464;-78
2021/09/27 05:48:19;;;;;;;;;5.75;5.50;;;;;19.33;71.57;101315.94;5079289;28;45234;-78
2021/09/27 05:51:01;;;;;;;;;7.25;6.75;;;;;19.33;71.10;101307.13;5057778;28;45517;-79
2021/09/27 05:53:54;;;;;;;;;9.00;6.00;;;;;19.35;71.17;101270.56;5063565;27;45434;-78
2021/09/27 05:56:35;;;;;;;;;5.50;5.00;;;;;19.37;71.06;101295.31;5062017;28;45346;-78
2021/09/27 05:59:19;;;;;;;;;6.00;6.00;;;;;19.36;71.32;101287.41;5062579;28;45252;-79
2021/09/27 06:01:58;;;;;;;;;6.00;5.00;;;;;19.34;71.06;101290.16;5079849;28;45251;-78
2021/09/27 06:04:52;;;;;;;;;7.00;6.00;;;;;19.33;71.75;101291.97;5085701;27;45387;-78
2021/09/27 06:07:26;;;;;;;;;6.00;6.00;;;;;19.28;71.75;101279.88;5038166;28;45525;-78
2021/09/27 06:09:57;;;;;;;;;6.00;6.00;;;;;19.28;71.63;101295.88;5072777;28;45522;-78
2021/09/27 06:12:31;;;;;;;;;5.50;5.25;;;;;19.28;71.78;101301.22;5080920;28;45437;-78
2021/09/27 06:15:00;;;;;;;;;10.25;9.00;;;;;19.26;71.43;101314.59;5077985;28;45687;-78
2021/09/27 06:18:03;;;;;;;;;7.50;5.25;;;;;19.28;71.65;101311.88;5080707;28;45513;-78
2021/09/27 06:20:56;;;;;;;;;5.25;5.25;;;;;19.30;71.59;101283.31;5081425;28;45532;-78
2021/09/27 06:23:48;;;;;;;;;7.00;5.50;;;;;19.32;71.24;101327.56;5061745;28;45540;-78
2021/09/27 06:26:15;;;;;;;;;7.75;5.75;;;;;19.27;71.68;101320.81;5092313;27;45527;-78
2021/09/27 06:28:50;;;;;;;;;5.75;5.75;;;;;19.31;71.75;101333.00;5063601;28;45532;-78
2021/09/27 06:31:29;;;;;;;;;8.50;6.75;;;;;19.29;71.16;101319.75;5079155;27;45417;-78
2021/09/27 06:34:15;;;;;;;;;7.00;5.25;;;;;19.33;71.40;101317.78;5075679;28;45414;-78
2021/09/27 06:36:42;;;;;;;;;5.00;4.00;;;;;19.32;71.53;101324.91;5079204;28;45291;-78
2021/09/27 06:39:15;;;;;;;;;5.75;5.75;;;;;19.32;71.09;101324.03;5081639;28;45274;-78
2021/09/27 06:41:41;;;;;;;;;7.25;6.75;;;;;19.32;71.50;101306.25;5072819;28;45465;-78
2021/09/27 06:44:07;;;;;;;;;7.00;6.25;;;;;19.33;71.52;101313.28;5080161;28;45466;-78
2021/09/27 06:46:32;;;;;;;;;4.75;4.00;;;;;19.35;71.54;101307.88;5070164;28;45318;-78
2021/09/27 06:48:58;;;;;;;;;6.50;6.00;;;;;19.40;71.00;101321.78;5076465;28;45283;-78
2021/09/27 06:51:23;;;;;;;;;6.25;6.00;;;;;19.42;71.04;101327.88;5078915;28;45219;-78
2021/09/27 06:53:48;;;;;;;;;9.00;7.25;;;;;19.38;71.14;101322.81;5068831;28;45480;-79
2021/09/27 06:56:14;;;;;;;;;7.50;6.00;;;;;19.36;71.02;101324.72;5068857;28;45341;-78
2021/09/27 06:58:39;;;;;;;;;7.25;7.25;;;;;19.38;70.96;101320.16;5081615;28;45411;-78
2021/09/27 07:01:05;;;;;;;;;5.75;5.25;;;;;19.33;70.82;101305.28;5081679;28;45288;-78
2021/09/27 07:03:30;;;;;;;;;5.25;5.00;;;;;19.31;71.04;101307.19;5067524;27;45425;-78
2021/09/27 07:05:56;;;;;;;;;5.75;5.00;;;;;19.33;71.07;101310.63;5078132;27;45488;-78
2021/09/27 07:08:23;;;;;;;;;8.50;7.50;;;;;19.29;71.35;101293.09;5066314;28;45563;-78
2021/09/27 07:10:51;;;;;;;;;5.75;5.25;;;;;19.34;71.17;101308.81;5077308;27;45282;-78
2021/09/27 07:13:16;;;;;;;;;3.75;3.00;;;;;19.32;71.44;101314.25;5094586;27;45407;-78
2021/09/27 07:15:43;;;;;;;;;5.75;5.25;;;;;19.31;70.95;101307.19;5080711;28;45447;-78
2021/09/27 07:18:08;;;;;;;;;6.00;6.00;;;;;19.31;70.87;101315.19;5075980;28;45590;-78
2021/09/27 07:20:34;;;;;;;;;6.75;5.75;;;;;19.32;71.19;101314.25;5078173;28;45267;-79
2021/09/27 07:22:59;;;;;;;;;5.25;5.25;;;;;19.32;71.08;101313.38;5065354;28;45421;-78
2021/09/27 07:25:27;;;;;;;;;5.50;5.25;;;;;19.32;70.99;101313.38;5076854;28;45455;-78
2021/09/27 07:27:53;;;;;;;;;7.50;6.25;;;;;19.31;70.95;101317.03;5081251;28;45302;-78
2021/09/27 07:30:19;;;;;;;;;5.75;4.75;;;;;19.32;70.99;101310.72;5081152;28;45453;-78
2021/09/27 07:32:45;;;;;;;;;9.00;7.00;;;;;19.35;71.18;101321.19;5070984;28;45286;-78
2021/09/27 07:35:15;;;;;;;;;4.75;4.00;;;;;19.34;71.15;101319.47;5071335;28;45406;-78
2021/09/27 07:37:41;;;;;;;;;6.25;5.25;;;;;19.33;70.98;101315.94;5074515;28;45387;-78
2021/09/27 07:40:10;;;;;;;;;4.00;4.00;;;;;19.34;70.98;101320.34;5079146;28;45298;-78
2021/09/27 07:42:36;;;;;;;;;6.00;4.50;;;;;19.30;71.26;101313.50;5075489;28;45423;-78
2021/09/27 07:45:03;;;;;;;;;7.00;5.00;;;;;19.29;71.20;101314.44;5065747;28;45318;-78
2021/09/27 07:47:28;;;;;;;;;6.25;6.25;;;;;19.30;71.00;101318.81;5075142;28;45376;-78
2021/09/27 07:49:54;;;;;;;;;9.25;6.50;;;;;19.30;70.87;101324.16;5065548;27;45461;-77
2021/09/27 07:52:19;;;;;;;;;8.00;7.00;;;;;19.34;71.01;101333.66;5080519;28;45353;-78
2021/09/27 07:54:45;;;;;;;;;5.25;5.25;;;;;19.29;71.16;101314.44;5069616;28;45330;-77
2021/09/27 07:57:10;;;;;;;;;5.00;5.00;;;;;19.33;71.15;101310.63;5069552;27;45440;-78
2021/09/27 07:59:36;;;;;;;;;7.50;5.00;;;;;19.38;71.26;101305.03;5076907;28;45402;-78
2021/09/27 08:02:01;;;;;;;;;6.00;6.00;;;;;19.37;71.10;101318.44;5067064;28;45539;-78
2021/09/27 08:04:26;;;;;;;;;5.00;5.00;;;;;19.34;71.26;101320.34;5081260;27;45368;-77
2021/09/27 08:06:52;;;;;;;;;5.25;4.25;;;;;19.33;71.35;101326.59;5079608;28;45370;-78
2021/09/27 08:09:17;;;;;;;;;8.00;6.75;;;;;19.34;71.59;101317.66;5078318;27;46039;-78
2021/09/27 08:11:43;;;;;;;;;7.50;7.25;;;;;19.33;71.41;101318.59;5058238;28;46286;-78
2021/09/27 08:14:13;;;;;;;;;4.00;4.00;;;;;19.38;71.74;101322.81;5064224;27;45462;-78
2021/09/27 08:16:38;;;;;;;;;5.75;4.75;;;;;19.34;71.52;101312.34;5066068;28;45714;-78
2021/09/27 08:19:05;;;;;;;;;6.75;6.00;;;;;19.34;71.41;101317.66;5070015;28;45644;-78
2021/09/27 08:21:30;;;;;;;;;6.00;6.00;;;;;19.34;71.34;101325.66;5079533;28;45388;-78
2021/09/27 08:23:56;;;;;;;;;7.00;6.00;;;;;19.30;71.55;101324.16;5080014;28;45448;-78
2021/09/27 08:26:21;;;;;;;;;8.50;7.25;;;;;19.32;71.55;101334.72;5066454;28;45453;-78
2021/09/27 08:28:47;;;;;;;;;5.75;5.75;;;;;19.29;71.80;101327.75;5079354;28;45800;-78
2021/09/27 08:31:20;;;;;;;;;5.00;5.00;;;;;19.36;71.64;101322.06;5072760;28;45480;-78
2021/09/27 08:33:48;;;;;;;;;6.75;5.00;;;;;19.39;71.69;101327.19;5078409;28;45728;-78
2021/09/27 08:36:18;;;;;;;;;6.25;6.00;;;;;19.38;71.41;101318.34;5054624;28;45185;-78
2021/09/27 08:38:44;;;;;;;;;4.75;4.75;;;;;19.40;71.79;101321.78;5076783;28;45231;-78
2021/09/27 08:41:09;;;;;;;;;6.00;5.00;;;;;19.45;71.83;101318.81;5060502;28;45784;-78
2021/09/27 08:44:12;;;;;;;;;8.50;6.00;;;;;19.48;71.70;101310.66;5077074;28;45449;-79
2021/09/27 08:46:57;;;;;;;;;8.00;6.25;;;;;19.47;71.76;101292.06;5068902;28;45209;-78
2021/09/27 08:49:41;;;;;;;;;6.25;6.00;;;;;19.50;71.97;101297.22;5071582;28;45217;-79
2021/09/27 08:52:11;;;;;;;;;5.00;5.00;;;;;19.55;71.96;101317.31;5061040;28;45470;-79
2021/09/27 08:54:43;;;;;;;;;6.25;6.25;;;;;19.54;71.35;101315.59;5071887;28;46225;-79
2021/09/27 08:57:34;;;;;;;;;5.75;5.75;;;;;19.54;71.93;101310.25;5073882;28;45412;-79
2021/09/27 09:00:33;;;;;;;;;7.25;7.00;;;;;19.60;71.50;101316.16;5066838;28;45249;-78
2021/09/27 09:03:12;;;;;;;;;8.50;7.50;;;;;19.60;71.85;101310.81;5069556;28;45293;-79
2021/09/27 09:05:45;;;;;;;;;7.25;7.25;;;;;19.58;71.92;101299.41;5078052;27;46639;-79
2021/09/27 09:08:13;;;;;;;;;8.25;7.25;;;;;19.64;71.81;101297.19;5074501;28;45605;-79
2021/09/27 09:10:53;;;;;;;;;11.50;6.25;;;;;19.66;71.70;101295.28;5078693;28;45271;-79
2021/09/27 09:13:27;;;;;;;;;8.00;7.25;;;;;19.69;71.31;101299.56;5072797;28;45320;-79
2021/09/27 09:16:01;;;;;;;;;6.50;5.25;;;;;19.70;71.51;101298.63;5079034;28;45590;-79
2021/09/27 09:18:41;;;;;;;;;8.75;8.75;;;;;19.70;71.79;101295.97;5079707;28;45204;-79
2021/09/27 09:21:18;;;;;;;;;11.50;7.25;;;;;19.71;71.78;101289.66;5067288;28;45358;-79
2021/09/27 09:23:52;;;;;;;;;7.50;7.50;;;;;19.74;71.63;101293.94;5062957;28;45330;-79
2021/09/27 09:26:24;;;;;;;;;11.50;8.50;;;;;19.73;71.21;101305.59;5065163;28;45556;-79
2021/09/27 09:28:52;;;;;;;;;8.00;8.00;;;;;19.70;71.42;101289.78;5077158;28;45982;-79
2021/09/27 09:31:33;;;;;;;;;8.00;6.00;;;;;19.67;71.34;101297.00;5080628;28;45271;-79
2021/09/27 09:34:04;;;;;;;;;9.25;7.50;;;;;19.70;71.43;101290.63;5069291;28;45149;-79
2021/09/27 09:36:33;;;;;;;;;7.25;6.25;;;;;19.74;71.73;101297.47;5070111;28;45357;-79
2021/09/27 09:39:01;;;;;;;;;8.25;6.50;;;;;19.76;71.68;101292.03;5077027;28;45254;-79
2021/09/27 09:41:50;;;;;;;;;6.50;6.50;;;;;19.85;71.41;101290.59;5066225;28;45445;-79
2021/09/27 09:44:36;;;;;;;;;8.75;6.25;;;;;19.85;71.57;101288.78;5082065;28;45552;-79
2021/09/27 09:47:19;;;;;;;;;9.00;7.00;;;;;19.86;71.05;101294.97;5077960;28;45386;-79
2021/09/27 09:49:53;;;;;;;;;7.00;6.25;;;;;19.85;71.17;101293.28;5072456;28;45201;-79
2021/09/27 09:52:53;;;;;;;;;9.25;7.00;;;;;19.90;71.42;101315.19;5074882;28;45350;-79
2021/09/27 09:55:36;;;;;;;;;8.00;8.00;;;;;19.87;71.28;101307.38;5074628;28;45361;-79
2021/09/27 09:58:12;;;;;;;;;8.00;8.00;;;;;19.85;71.42;101301.28;5063557;28;45254;-79
2021/09/27 10:00:47;;;;;;;;;6.00;6.00;;;;;19.86;71.31;101310.97;5079042;28;45516;-79
2021/09/27 10:03:17;;;;;;;;;8.75;6.25;;;;;19.88;71.52;101311.72;5082662;28;45263;-79
2021/09/27 10:05:56;;;;;;;;;5.25;5.25;;;;;19.91;71.47;101300.88;5068328;27;45375;-79
2021/09/27 10:08:24;;;;;;;;;6.25;6.25;;;;;19.94;71.89;101302.50;5082414;28;46306;-79
2021/09/27 10:11:05;;;;;;;;;5.75;5.75;;;;;19.98;71.49;101304.00;5059942;28;45358;-79
2021/09/27 10:13:33;;;;;;;;;6.75;4.50;;;;;20.00;71.44;101310.94;5074527;28;45151;-79
2021/09/27 10:16:01;;;;;;;;;6.50;5.25;;;;;20.00;71.38;101308.28;5073355;28;45443;-79
2021/09/27 10:18:35;;;;;;;;;6.00;6.00;;;;;19.98;71.14;101307.53;5078253;28;45485;-79
2021/09/27 10:21:09;;;;;;;;;5.25;5.25;;;;;19.99;71.07;101314.59;5082159;28;45614;-79
2021/09/27 10:23:41;;;;;;;;;8.50;7.00;;;;;19.90;70.98;101313.34;5082658;28;45391;-80
2021/09/27 10:26:18;;;;;;;;;5.00;5.00;;;;;19.85;70.95;101320.78;5080900;28;45274;-79
2021/09/27 10:28:47;;;;;;;;;6.25;5.25;;;;;19.76;71.04;101311.56;5080785;28;45297;-79
2021/09/27 10:31:13;;;;;;;;;5.00;5.00;;;;;19.71;70.99;101312.81;5080830;28;45401;-79
2021/09/27 10:33:46;;;;;;;;;6.75;5.75;;;;;19.66;71.60;101303.28;5081474;28;45484;-79
2021/09/27 10:36:20;;;;;;;;;5.50;4.75;;;;;19.65;71.71;101311.41;5081210;28;45412;-78
2021/09/27 10:38:58;;;;;;;;;2.75;2.75;;;;;19.64;71.71;101307.88;5069348;28;45508;-79
2021/09/27 10:41:28;;;;;;;;;8.75;6.00;;;;;19.61;72.24;101321.38;5074677;28;45400;-79
2021/09/27 10:43:57;;;;;;;;;5.75;5.75;;;;;19.62;71.99;101323.09;5080917;28;45552;-79
2021/09/27 10:46:32;;;;;;;;;6.25;6.25;;;;;19.62;72.17;101322.25;5068349;28;45751;-79
2021/09/27 10:48:58;;;;;;;;;6.75;6.00;;;;;19.60;73.16;101317.03;5074615;28;45547;-79
2021/09/27 10:51:30;;;;;;;;;6.50;5.00;;;;;19.62;72.55;101330.25;5081439;28;45561;-79
2021/09/27 10:54:32;;;;;;;;;6.00;4.00;;;;;19.64;72.38;101331.00;5081707;28;45304;-79
2021/09/27 10:56:58;;;;;;;;;5.50;5.50;;;;;19.60;72.26;101332.16;5077011;27;45887;-79
2021/09/27 10:59:29;;;;;;;;;2.00;1.00;;;;;19.61;72.43;101333.84;5068440;28;46567;-79
2021/09/27 11:02:19;;;;;;;;;5.25;5.25;;;;;19.55;72.41;101341.31;5064962;28;45444;-79
2021/09/27 11:04:52;;;;;;;;;5.25;5.25;;;;;19.56;72.55;101324.34;5073314;27;45463;-79
2021/09/27 11:07:28;;;;;;;;;6.25;6.00;;;;;19.58;72.85;101326.06;5076360;28;45326;-79
2021/09/27 11:09:54;;;;;;;;;6.25;6.25;;;;;19.60;72.25;101340.16;5067790;27;45390;-79
2021/09/27 11:12:48;;;;;;;;;7.00;6.00;;;;;19.59;72.75;101347.28;5075676;27;45389;-79
2021/09/27 11:15:30;;;;;;;;;6.00;6.00;;;;;19.56;72.94;101343.00;5081616;28;45262;-80
2021/09/27 11:18:34;;;;;;;;;8.50;6.25;;;;;19.58;72.75;101348.25;5063875;28;46670;-80
2021/09/27 11:21:17;;;;;;;;;5.75;5.75;;;;;19.57;72.43;101333.19;5035638;28;45674;-80
2021/09/27 11:23:44;;;;;;;;;5.75;4.50;;;;;19.59;72.95;101338.41;5052876;27;45457;-79
2021/09/27 11:26:18;;;;;;;;;6.75;6.75;;;;;19.62;72.95;101354.25;5070653;28;45438;-78
2021/09/27 11:28:52;;;;;;;;;5.00;4.00;;;;;19.60;73.57;101332.16;5071387;28;45570;-78
2021/09/27 11:31:41;;;;;;;;;8.00;6.75;;;;;19.57;73.13;101349.19;5065301;28;47060;-79
2021/09/27 11:34:30;;;;;;;;;6.50;5.25;;;;;19.58;73.09;101347.41;5057517;28;45316;-78
2021/09/27 11:37:19;;;;;;;;;6.50;5.00;;;;;19.58;74.12;101376.72;5068566;28;45462;-79
2021/09/27 11:40:28;;;;;;;;;2.25;2.00;;;;;19.23;72.48;101472.91;5037617;28;45460;-79
2021/09/27 11:43:13;;;;;;;;;0.25;0.25;;;;;18.15;74.16;101453.97;5075591;28;45413;-79
2021/09/27 11:45:51;;;;;;;;;1.50;0.50;;;;;17.18;76.96;101478.34;5071824;28;45577;-77
2021/09/27 11:48:16;;;;;;;;;1.00;0.00;;;;;16.63;78.69;101462.31;5077958;28;45495;-77
2021/09/27 11:51:04;;;;;;;;;3.00;0.00;;;;;16.26;78.23;101462.22;5077360;28;46913;-77
2021/09/27 11:53:59;;;;;;;;;0.00;0.00;;;;;15.91;79.25;101454.88;5060417;28;45254;-77
2021/09/27 11:56:45;;;;;;;;;1.00;0.00;;;;;15.62;81.24;101469.34;5078801;27;45656;-77
2021/09/27 11:59:24;;;;;;;;;1.00;0.75;;;;;15.55;81.67;101480.28;5042359;28;45335;-82
2021/09/27 12:02:12;;;;;;;;;0.00;0.00;;;;;15.55;82.15;101477.63;5079195;28;45500;-82
2021/09/27 12:05:02;;;;;;;;;0.00;0.00;;;;;15.63;80.06;101488.78;5067782;27;46062;-82
2021/09/27 12:07:41;;;;;;;;;1.00;0.00;;;;;15.62;80.69;101477.31;5069913;28;45469;-82
2021/09/27 12:10:27;;;;;;;;;0.00;0.00;;;;;15.67;79.27;101492.13;5080405;28;45381;-82
2021/09/27 12:12:57;;;;;;;;;0.00;0.00;;;;;15.65;79.88;101486.91;5080519;28;45507;-82
2021/09/27 12:15:30;;;;;;;;;0.25;0.25;;;;;15.70;80.78;101478.75;5066470;28;45236;-82
2021/09/27 12:17:55;;;;;;;;;0.25;0.25;;;;;15.76;78.49;101475.84;5072365;28;45877;-82
2021/09/27 12:20:26;;;;;;;;;0.00;0.00;;;;;15.80;78.86;101489.84;5080431;28;45180;-82
2021/09/27 12:22:57;;;;;;;;;1.00;1.00;;;;;15.80;78.24;101490.69;5080243;28;45353;-82
2021/09/27 12:25:36;;;;;;;;;1.75;1.00;;;;;15.77;77.84;101497.91;5079308;28;46277;-82
2021/09/27 12:28:07;;;;;;;;;0.00;0.00;;;;;15.78;79.34;101504.94;5066851;28;45775;-82
2021/09/27 12:30:37;;;;;;;;;0.00;0.00;;;;;15.83;79.43;101498.50;5077831;28;45220;-82
2021/09/27 12:33:17;;;;;;;;;1.25;0.75;;;;;15.96;78.64;101509.44;5058643;28;47078;-82
2021/09/27 12:35:45;;;;;;;;;1.50;0.00;;;;;16.06;77.43;101506.41;5075679;28;45263;-82
2021/09/27 12:38:17;;;;;;;;;2.00;1.00;;;;;16.05;78.42;101494.94;5076427;28;45512;-82
2021/09/27 12:40:48;;;;;;;;;2.50;1.00;;;;;16.13;77.05;101491.09;5060624;28;45298;-78
2021/09/27 12:43:24;;;;;;;;;0.75;0.25;;;;;16.20;78.18;101500.47;5073707;28;45327;-81
2021/09/27 12:45:56;;;;;;;;;1.00;1.00;;;;;16.27;77.68;101501.09;5079439;28;45431;-80
2021/09/27 12:48:33;;;;;;;;;1.00;0.25;;;;;16.42;77.36;101507.50;5062024;28;46065;-84
2021/09/27 12:51:27;;;;;;;;;2.25;1.75;;;;;16.45;77.49;101511.78;5074663;28;45402;-81
2021/09/27 12:54:09;;;;;;;;;0.00;0.00;;;;;16.56;76.68;101514.81;5058564;28;45699;-82
2021/09/27 12:56:35;;;;;;;;;1.00;1.00;;;;;16.73;76.93;101522.00;5079707;28;45497;-81
2021/09/27 12:59:07;;;;;;;;;0.75;0.75;;;;;16.89;77.27;101523.91;5067713;28;45435;-81
2021/09/27 13:01:37;;;;;;;;;2.00;0.25;;;;;16.97;77.66;101519.09;5060379;28;45284;-83
2021/09/27 13:04:05;;;;;;;;;0.00;0.00;;;;;17.09;76.09;101522.97;5083871;27;45540;-81
2021/09/27 13:06:32;;;;;;;;;0.00;0.00;;;;;17.20;76.61;101524.28;5082530;28;45643;-81
2021/09/27 13:09:08;;;;;;;;;1.00;1.00;;;;;17.31;75.93;101526.38;5083534;28;45313;-81
2021/09/27 13:11:44;;;;;;;;;3.00;2.00;;;;;17.31;75.04;101519.28;5072638;28;45228;-81
2021/09/27 13:14:19;;;;;;;;;1.00;1.00;;;;;17.40;72.97;101535.72;5064717;28;45466;-83
2021/09/27 13:16:50;;;;;;;;;1.50;1.50;;;;;17.31;73.16;101523.72;5065177;28;46031;-82
2021/09/27 13:19:39;;;;;;;;;1.50;0.50;;;;;17.37;74.46;101543.84;5073915;28;45980;-82
2021/09/27 13:22:14;;;;;;;;;2.25;1.00;;;;;17.36;74.35;101539.47;5080853;28;45575;-81
2021/09/27 13:24:39;;;;;;;;;2.75;1.00;;;;;17.41;71.76;101537.41;5077942;28;45510;-81
2021/09/27 13:27:30;;;;;;;;;1.25;1.00;;;;;17.47;73.75;101545.09;5082857;28;45457;-82
2021/09/27 13:30:24;;;;;;;;;1.00;1.00;;;;;17.42;72.47;101549.78;5083105;28;45581;-82
2021/09/27 13:33:06;;;;;;;;;1.00;0.00;;;;;17.50;73.53;101555.59;5068844;28;45269;-81
2021/09/27 13:35:40;;;;;;;;;0.50;0.50;;;;;17.56;73.69;101554.41;5082019;28;45348;-82
2021/09/27 13:38:34;;;;;;;;;0.00;0.00;;;;;17.66;71.64;101557.47;5068715;28;45433;-81
2021/09/27 13:41:02;;;;;;;;;0.00;0.00;;;;;17.81;72.17;101565.59;5058428;28;45848;-81
2021/09/27 13:43:33;;;;;;;;;1.50;0.00;;;;;17.87;69.35;101576.81;5077511;28;45689;-82
2021/09/27 13:46:09;;;;;;;;;1.50;0.50;;;;;17.86;67.29;101563.56;5071745;28;45589;-82
2021/09/27 13:48:34;;;;;;;;;1.50;1.50;;;;;17.76;68.52;101548.09;5074884;28;45482;-82
2021/09/27 13:51:00;;;;;;;;;0.00;0.00;;;;;17.74;67.76;101565.94;5053476;28;45412;-81
2021/09/27 13:53:38;;;;;;;;;0.00;0.00;;;;;17.74;69.33;101565.06;5079798;28;45386;-82
2021/09/27 13:56:09;;;;;;;;;0.00;0.00;;;;;17.85;70.03;101575.16;5075206;28;45289;-77
2021/09/27 13:58:34;;;;;;;;;1.50;0.00;;;;;17.96;71.18;101562.16;5081698;28;45460;-78
2021/09/27 14:01:00;;;;;;;;;0.00;0.00;;;;;18.02;70.78;101571.63;5081033;28;45377;-78
2021/09/27 14:03:29;;;;;;;;;0.00;0.00;;;;;18.06;69.07;101567.88;5069552;27;45325;-77
2021/09/27 14:05:55;;;;;;;;;0.75;0.75;;;;;18.14;68.49;101578.13;5082525;27;45556;-78
2021/09/27 14:08:20;;;;;;;;;0.00;0.00;;;;;18.16;68.62;101570.06;5082505;28;45751;-77
2021/09/27 14:10:48;;;;;;;;;0.00;0.00;;;;;18.21;69.48;101568.91;5072844;28;45392;-77
2021/09/27 14:13:16;;;;;;;;;1.50;0.00;;;;;18.27;69.38;101577.50;5074009;28;45373;-78
2021/09/27 14:15:44;;;;;;;;;0.25;0.25;;;;;18.29;68.03;101594.25;5079361;28;45477;-78
2021/09/27 14:18:11;;;;;;;;;1.00;0.00;;;;;18.25;66.66;101587.38;5082374;28;45370;-78
2021/09/27 14:20:36;;;;;;;;;2.25;0.00;;;;;18.19;67.86;101586.75;5056515;27;45697;-82
2021/09/27 14:23:02;;;;;;;;;0.00;0.00;;;;;18.19;67.98;101593.84;5070022;28;45200;-82
2021/09/27 14:25:28;;;;;;;;;0.00;0.00;;;;;18.19;67.80;101596.50;5073470;28;45529;-82
2021/09/27 14:27:53;;;;;;;;;0.00;0.00;;;;;18.25;67.37;101598.03;5069391;28;45423;-81
2021/09/27 14:30:21;;;;;;;;;0.25;0.25;;;;;18.29;68.75;101599.59;5061858;28;45746;-82
2021/09/27 14:32:46;;;;;;;;;0.00;0.00;;;;;18.34;68.93;101597.53;5071132;28;45405;-82
2021/09/27 14:35:14;;;;;;;;;0.00;0.00;;;;;18.44;68.11;101604.09;5072707;28;45478;-82
2021/09/27 14:37:40;;;;;;;;;1.00;0.00;;;;;18.48;63.68;101603.91;5058893;28;47137;-82
2021/09/27 14:40:06;;;;;;;;;0.50;0.50;;;;;18.55;63.49;101615.97;5079516;28;45405;-82
2021/09/27 14:42:32;;;;;;;;;0.00;0.00;;;;;18.58;63.81;101612.28;5079139;28;45461;-82
2021/09/27 14:44:57;;;;;;;;;1.00;0.75;;;;;18.66;64.25;101613.59;5071256;28;45468;-82
2021/09/27 14:47:23;;;;;;;;;0.25;0.25;;;;;18.72;63.02;101615.06;5074670;28;45439;-82
2021/09/27 14:49:52;;;;;;;;;0.00;0.00;;;;;18.74;63.52;101630.97;5081442;28;45221;-81
2021/09/27 14:52:18;;;;;;;;;2.00;0.00;;;;;18.71;61.18;101624.00;5069326;28;45375;-82
2021/09/27 14:54:44;;;;;;;;;1.50;0.75;;;;;18.76;63.02;101627.28;5078976;28;45784;-82
2021/09/27 14:57:11;;;;;;;;;0.00;0.00;;;;;18.77;62.08;101631.66;5068940;27;46478;-82
2021/09/27 14:59:36;;;;;;;;;0.00;0.00;;;;;18.75;61.15;101633.53;5079253;28;45220;-82
2021/09/27 15:02:02;;;;;;;;;3.00;0.00;;;;;18.80;61.56;101630.63;5062233;28;45435;-82
2021/09/27 15:04:28;;;;;;;;;0.00;0.00;;;;;18.83;64.16;101622.47;5063385;28;45415;-82
2021/09/27 15:06:53;;;;;;;;;0.00;0.00;;;;;18.83;62.78;101627.81;5079210;28;45320;-82
2021/09/27 15:09:19;;;;;;;;;0.00;0.00;;;;;18.87;59.07;101628.47;5068397;28;45229;-82
2021/09/27 15:11:46;;;;;;;;;0.00;0.00;;;;;18.94;61.75;101647.69;5062668;28;45254;-82
2021/09/27 15:14:11;;;;;;;;;0.00;0.00;;;;;18.95;57.31;101634.25;5080843;28;46501;-82
2021/09/27 15:16:37;;;;;;;;;0.00;0.00;;;;;18.98;59.98;101636.78;5077739;28;46323;-82
2021/09/27 15:19:03;;;;;;;;;0.00;0.00;;;;;19.05;61.04;101642.63;5080031;28;45377;-82
2021/09/27 15:21:30;;;;;;;;;0.50;0.50;;;;;19.12;60.47;101649.31;5071047;28;45429;-82
2021/09/27 15:23:56;;;;;;;;;0.50;0.00;;;;;19.22;58.76;101659.50;5078133;28;45300;-82
2021/09/27 15:26:32;;;;;;;;;0.00;0.00;;;;;19.23;60.39;101653.25;5076419;28;45324;-82
2021/09/27 15:29:10;;;;;;;;;0.00;0.00;;;;;19.19;59.40;101659.66;5077595;28;45846;-80
2021/09/27 15:31:47;;;;;;;;;0.00;0.00;;;;;19.17;59.96;101664.19;5065731;28;45453;-81
2021/09/27 15:34:18;;;;;;;;;0.25;0.25;;;;;19.12;58.70;101667.97;5054754;28;47413;-81
2021/09/27 15:36:46;;;;;;;;;0.00;0.00;;;;;19.06;60.89;101665.63;5070519;28;45471;-80
2021/09/27 15:39:14;;;;;;;;;0.00;0.00;;;;;19.01;59.44;101668.53;5075135;28;45442;-80
2021/09/27 15:41:40;;;;;;;;;0.00;0.00;;;;;18.95;60.04;101673.34;5062319;28;45429;-80
2021/09/27 15:44:08;;;;;;;;;1.00;1.00;;;;;18.91;60.16;101678.00;5080032;28;45459;-80
2021/09/27 15:46:34;;;;;;;;;0.00;0.00;;;;;18.87;59.78;101677.28;5079748;28;45578;-80
2021/09/27 15:49:00;;;;;;;;;4.00;0.00;;;;;18.82;58.37;101674.00;5080444;28;45472;-80
2021/09/27 15:51:26;;;;;;;;;0.00;0.00;;;;;18.82;59.33;101683.78;5079847;28;45437;-80
2021/09/27 15:53:51;;;;;;;;;4.00;0.75;;;;;18.81;58.26;101688.28;5073198;28;47151;-82
2021/09/27 15:56:16;;;;;;;;;0.00;0.00;;;;;18.75;56.18;101692.13;5066421;28;45442;-80
2021/09/27 15:58:42;;;;;;;;;1.75;0.75;;;;;18.80;56.14;101704.31;5060735;28;45241;-80
2021/09/27 16:01:09;;;;;;;;;0.00;0.00;;;;;18.72;57.52;101694.94;5080043;28;45597;-83
2021/09/27 16:03:37;;;;;;;;;0.25;0.00;;;;;18.77;56.32;101705.34;5080554;27;45573;-83
2021/09/27 16:06:05;;;;;;;;;0.00;0.00;;;;;18.74;55.26;101710.84;5079939;28;46377;-81
2021/09/27 16:08:30;;;;;;;;;0.00;0.00;;;;;18.68;56.82;101698.72;5050237;28;45569;-83
2021/09/27 16:10:58;;;;;;;;;1.25;0.00;;;;;18.73;56.90;101711.78;5077574;28;45314;-83
2021/09/27 16:13:24;;;;;;;;;0.50;0.50;;;;;18.70;52.76;101722.59;5073219;28;45489;-80
2021/09/27 16:15:50;;;;;;;;;0.00;0.00;;;;;18.67;53.93;101718.28;5079206;28;46330;-80
2021/09/27 16:18:16;;;;;;;;;0.25;0.00;;;;;18.61;55.12;101716.81;5080409;28;45401;-80
2021/09/27 16:20:43;;;;;;;;;0.00;0.00;;;;;18.71;54.36;101734.97;5080466;28;45306;-80
2021/09/27 16:23:10;;;;;;;;;0.00;0.00;;;;;18.67;56.06;101737.78;5080448;28;45491;-80
2021/09/27 16:25:36;;;;;;;;;0.00;0.00;;;;;18.67;57.62;101745.78;5061663;28;48426;-80
2021/09/27 16:28:04;;;;;;;;;0.75;0.75;;;;;18.62;56.09;101736.31;5075887;28;45429;-80
2021/09/27 16:30:30;;;;;;;;;0.00;0.00;;;;;18.57;54.02;101739.19;5067282;28;46039;-80
2021/09/27 16:32:58;;;;;;;;;0.00;0.00;;;;;18.53;53.00;101746.50;5061891;28;45693;-80
2021/09/27 16:35:25;;;;;;;;;0.00;0.00;;;;;18.53;54.11;101751.81;5063782;28;45411;-80
2021/09/27 16:37:50;;;;;;;;;1.00;1.00;;;;;18.52;55.21;101751.91;5054564;28;45894;-80
2021/09/27 16:40:16;;;;;;;;;0.00;0.00;;;;;18.55;54.66;101759.72;5078636;28;45454;-80
2021/09/27 16:42:41;;;;;;;;;1.50;0.00;;;;;18.46;53.64;101752.19;5070094;27;45476;-80
2021/09/27 16:45:07;;;;;;;;;0.00;0.00;;;;;18.46;55.40;101762.84;5070028;28;45386;-80
2021/09/27 16:47:33;;;;;;;;;0.00;0.00;;;;;18.51;54.94;101771.47;5069433;28;45976;-80